Aeroporto :
LOGIN :

Iscrizione | Disclaimer

   EN    FR    IT 

 










Sommario :    VFR   VFR Marginale   IFR   IFR Intensivo   IFR Molto Intensivo
Visibilità : 
Base nubi : 
>= 8 km
>= 3000ft
5 / 8 km
1000 / 3000 ft
1500m / 5 km
500 / 1000 ft
800 / 1500m
200 / 500 ft
< 800m
< 200 ft
Simboli :   Temporali  Nebbia  Neve Forte  Precipitazioni Forti  Vento > 20 kt
SIGMETs :   Varie  Temporali  Ghiacco  Turbolenza  Onda orograficha  Ceneri Vulcaniche






- Altitudine del aeroporto : 22 ft
- Codice IATA : LDY


EGAE - Londonderry Eglington

ULTIMO METAR :
  • 141420Z 36011KT 9999 -SHRA FEW017 SCT032 07/04 Q1012

METARs OBSOLETI :
  • 141350Z 36012KT 9999 VCSH FEW019 BKN035 07/04 Q1011
  • 141320Z 02014KT 9999 VCSH FEW018 BKN038 07/04 Q1011
  • 141250Z 02013G23KT 9999 SHRA FEW018 BKN032 06/03 Q1011
  • 141220Z 03016KT 9999 VCSH FEW018 BKN026 06/04 Q1011
  • 141150Z 04018KT 9999 VCSH FEW018 BKN029 06/03 Q1010

TAF TAF EGAE
Valido dal 14 a 12 ore il 14 a 21 ore UTC


141104Z 1412/1421 03015KT 9999 FEW018 SCT030
TEMPO 1412/1421 03018G28KT 7000 SHRA
PROB30
TEMPO 1412/1421 4000 SHGS



MetMap, La meteo Aeronautica in un colpo d'occhio ! - Copyright ORBIFLY Dicembre 2007 - Disclaimer

ORBIFLY MET'MAP TEAM :

Programmazione e sviluppo : Alexandra Zaïnal
Concezione e sviluppo : Baudouin d'Aumeries
Co-Programmazione e sviluppo : Marc-Olivier Méhu
Supporto tecnico e logistico : Manuel Goepfert
Aiuto per la traduzione : Arnaldo La Scala

Contatto : metmap@orbifly.com




FONTI E CREDITI :

   NOAA